Terminal Aerodrome Forecast
Issued by NWS Atlanta, GA

Home | Current Version | Previous Version | Text Only | Print | Product List | Glossary On
Versions: 1 2 3 4 5 6 7 8 9 10 11 12 13 14 15 16 17 18 19 20 21 22 23 24 25 26 27 28 29
000
FTUS42 KFFC 211426 AAB
TAFMCN
TAF AMD
KMCN 211426Z 2114/2212 13006KT 2SM -SHRA BKN004 OVC015
      TEMPO 2114/2118 VRB15G25KT 2SM TSRA SCT005 OVC015CB
     FM211800 19007KT 5SM -SHRA BR BKN012 OVC025
     FM212200 18006KT 6SM BR VCSH BKN025
     FM220200 17005KT 5SM -SHRA BR BKN007 OVC012
     FM220600 16006KT 3SM -SHRA BR OVC005 PROB30 2206/2212 2SM TSRA
      BKN005 OVC012CB=

USA.gov is the U.S. government's official web portal to all federal, state and local government web resources and services.